createdAt,value
2023-04-11T00:04:50.885Z,83.41
2023-04-11T00:07:32.126Z,83.27
2023-04-11T00:08:49.934Z,83.30
2023-04-11T00:10:21.831Z,83.41
2023-04-11T00:11:54.512Z,83.46
2023-04-11T00:13:27.189Z,83.44
2023-04-11T00:14:52.274Z,83.44
2023-04-11T00:16:07.090Z,83.40
2023-04-11T00:17:22.610Z,83.33
2023-04-11T00:18:55.606Z,83.14
2023-04-11T00:20:08.119Z,83.44
2023-04-11T00:21:16.022Z,83.52
2023-04-11T00:22:48.692Z,83.46
2023-04-11T00:24:13.922Z,83.47
2023-04-11T00:25:44.769Z,83.51
2023-04-11T00:27:10.500Z,83.51
2023-04-11T00:28:35.325Z,83.37
2023-04-11T00:29:56.554Z,83.49
2023-04-11T00:31:23.105Z,83.46
2023-04-11T00:32:56.014Z,83.35
2023-04-11T00:34:17.576Z,83.40
2023-04-11T00:35:50.186Z,83.44
2023-04-11T00:37:15.910Z,83.44
2023-04-11T00:38:42.129Z,83.35
2023-04-11T00:40:15.805Z,83.51
2023-04-11T00:41:23.733Z,83.52
2023-04-11T00:42:39.228Z,83.63
2023-04-11T00:44:10.577Z,83.47
2023-04-11T00:45:35.985Z,83.32
2023-04-11T00:47:08.541Z,83.36
2023-04-11T00:48:41.154Z,83.49
2023-04-11T00:49:55.260Z,83.46
2023-04-11T00:51:26.516Z,83.32
2023-04-11T00:52:52.828Z,83.37
2023-04-11T00:54:02.827Z,83.32
2023-04-11T00:55:35.363Z,83.54
2023-04-11T00:56:57.858Z,83.42
2023-04-11T00:58:08.415Z,83.42
2023-04-11T00:59:32.158Z,83.56
2023-04-11T01:00:51.906Z,83.41
2023-04-11T01:02:07.018Z,83.47
2023-04-11T01:03:38.492Z,83.55
2023-04-11T01:05:11.448Z,83.52
2023-04-11T01:06:17.492Z,83.46
2023-04-11T01:07:49.881Z,83.71
2023-04-11T01:09:06.106Z,83.41
2023-04-11T01:10:22.316Z,83.55
2023-04-11T01:11:54.836Z,83.28
2023-04-11T01:13:20.966Z,83.22
2023-04-11T01:14:38.584Z,83.26
2023-04-11T01:15:55.988Z,83.47
2023-04-11T01:17:28.415Z,83.71
2023-04-11T01:19:00.937Z,83.67
2023-04-11T01:20:15.240Z,83.75
2023-04-11T01:21:41.361Z,83.69
2023-04-11T01:23:14.189Z,83.84
2023-04-11T01:24:26.403Z,83.79
2023-04-11T01:25:51.761Z,83.83
2023-04-11T01:27:23.100Z,83.94
2023-04-11T01:28:56.442Z,83.83
2023-04-11T01:30:05.162Z,84.19
2023-04-11T01:31:19.007Z,84.08
2023-04-11T01:32:44.437Z,84.01
2023-04-11T01:33:57.180Z,84.24
2023-04-11T01:34:54.579Z,84.31
2023-04-11T01:36:15.640Z,84.48
2023-04-11T01:37:36.817Z,84.12
2023-04-11T01:39:01.780Z,84.35
2023-04-11T01:40:35.345Z,84.38
2023-04-11T01:47:51.049Z,84.55
2023-04-11T01:51:03.484Z,84.74
2023-04-11T01:52:36.051Z,84.94
2023-04-11T01:53:51.106Z,84.80
2023-04-11T01:55:23.525Z,84.98
2023-04-11T01:56:56.079Z,85.06
2023-04-11T02:00:22.495Z,84.98
2023-04-11T02:01:55.186Z,84.94
2023-04-11T02:03:07.679Z,85.20
2023-04-11T02:04:40.564Z,85.10
2023-04-11T02:06:13.137Z,85.17
2023-04-11T02:07:45.764Z,85.49
2023-04-11T02:09:10.834Z,85.33
2023-04-11T02:10:43.424Z,85.53
2023-04-11T02:12:15.065Z,85.53
2023-04-11T02:13:47.647Z,85.51
2023-04-11T02:14:59.746Z,85.69
2023-04-11T02:16:25.560Z,85.70
2023-04-11T02:20:49.781Z,85.59
2023-04-11T02:22:28.050Z,85.84
2023-04-11T02:24:01.055Z,85.89
2023-04-11T02:42:02.408Z,86.47
2023-04-11T02:43:25.772Z,86.55
2023-04-11T02:44:58.390Z,86.24
2023-04-11T02:46:30.907Z,86.72
2023-04-11T02:47:43.322Z,86.48
2023-04-11T02:49:15.790Z,86.67
2023-04-11T02:50:41.503Z,86.95
2023-04-11T02:52:11.496Z,86.95
2023-04-11T02:53:26.648Z,87.04
2023-04-11T02:54:48.156Z,86.93
2023-04-11T02:56:20.840Z,87.08
2023-04-11T02:57:33.275Z,87.15
2023-04-11T03:18:47.684Z,88.00
2023-04-11T03:20:01.467Z,87.96
2023-04-11T03:20:59.482Z,87.96
2023-04-11T03:22:04.382Z,87.81
2023-04-11T03:23:18.715Z,88.04
2023-04-11T03:24:39.903Z,88.06
2023-04-11T03:26:03.125Z,87.99
2023-04-11T03:27:35.673Z,88.23
2023-04-11T03:28:58.539Z,88.13
2023-04-11T03:30:31.448Z,88.37
2023-04-11T03:32:03.821Z,88.15
2023-04-11T03:33:36.930Z,88.15
2023-04-11T03:34:40.711Z,88.43
2023-04-11T03:36:02.137Z,88.42
2023-04-11T03:36:58.226Z,88.37
2023-04-11T03:38:20.969Z,88.58
2023-04-11T03:39:37.031Z,88.61
2023-04-11T03:41:09.804Z,88.66
2023-04-11T03:42:42.402Z,88.43
2023-04-11T03:44:16.433Z,88.43
2023-04-11T03:45:29.256Z,88.35
2023-04-11T03:47:02.039Z,88.63
2023-04-11T03:48:08.993Z,88.52
2023-04-11T03:54:02.693Z,88.73
2023-04-11T03:55:39.717Z,88.89
2023-04-11T03:56:44.695Z,88.76
2023-04-11T03:58:44.680Z,88.84
2023-04-11T04:00:17.295Z,88.73
2023-04-11T04:01:49.907Z,89.21
2023-04-11T04:03:22.452Z,89.03
2023-04-11T04:04:34.996Z,89.14
2023-04-11T04:06:07.886Z,89.22
2023-04-11T04:07:32.552Z,89.38
2023-04-11T04:09:06.245Z,89.13
2023-04-11T04:10:13.316Z,89.11
2023-04-11T04:11:46.294Z,89.19
2023-04-11T04:13:19.248Z,89.22
2023-04-11T04:14:50.660Z,89.56
2023-04-11T04:16:04.340Z,89.64
2023-04-11T04:17:18.363Z,89.73
2023-04-11T04:21:17.745Z,89.57
2023-04-11T04:31:18.820Z,90.11
2023-04-11T04:32:51.934Z,90.15
2023-04-11T04:34:24.599Z,90.53
2023-04-11T04:35:49.318Z,90.23
2023-04-11T04:37:14.556Z,90.19
2023-04-11T04:38:32.232Z,90.02
2023-04-11T04:40:04.769Z,90.16
2023-04-11T04:41:37.315Z,90.26
2023-04-11T04:43:09.859Z,90.51
2023-04-11T04:44:42.343Z,90.45
2023-04-11T04:46:14.778Z,90.60
2023-04-11T04:47:47.503Z,90.29
2023-04-11T04:49:12.873Z,90.42
2023-04-11T04:50:27.157Z,90.53
2023-04-11T04:51:59.603Z,90.53
2023-04-11T04:53:24.913Z,90.60
2023-04-11T04:54:57.376Z,90.49
2023-04-11T04:56:29.783Z,90.42
2023-04-11T04:58:02.197Z,90.89
2023-04-11T04:59:17.753Z,90.65
2023-04-11T05:00:43.087Z,90.97
2023-04-11T05:02:15.746Z,91.04
2023-04-11T05:03:30.287Z,91.05
2023-04-11T05:05:02.698Z,91.30
2023-04-11T05:06:28.349Z,90.89
2023-04-11T05:08:00.862Z,90.96
2023-04-11T05:09:24.691Z,90.95
2023-04-11T05:10:58.334Z,90.91
2023-04-11T05:12:32.725Z,91.37
2023-04-11T05:14:06.968Z,91.37
2023-04-11T05:15:33.129Z,91.39
2023-04-11T05:17:07.132Z,91.34
2023-04-11T05:18:19.854Z,91.42
2023-04-11T05:19:45.185Z,91.60
2023-04-11T05:21:10.542Z,91.76
2023-04-11T05:22:36.102Z,91.38
2023-04-11T05:23:30.087Z,91.49
2023-04-11T05:24:45.519Z,91.65
2023-04-11T05:25:59.581Z,91.31
2023-04-11T05:27:25.995Z,91.21
2023-04-11T05:28:58.512Z,91.61
2023-04-11T05:30:31.132Z,91.40
2023-04-11T05:31:54.504Z,91.50
2023-04-11T05:33:02.032Z,91.41
2023-04-11T05:34:34.591Z,91.58
2023-04-11T05:36:07.254Z,91.20
2023-04-11T05:37:19.557Z,91.71
2023-04-11T05:38:51.128Z,91.33
2023-04-11T05:40:24.086Z,91.33
2023-04-11T05:41:56.651Z,91.26
2023-04-11T05:43:17.123Z,91.15
2023-04-11T05:44:50.612Z,90.80
2023-04-11T05:46:13.557Z,90.72
2023-04-11T05:47:46.871Z,90.75
2023-04-11T05:49:19.362Z,90.23
2023-04-11T05:50:42.888Z,90.35
2023-04-11T05:52:11.641Z,90.22
2023-04-11T05:53:37.039Z,90.40
2023-04-11T05:55:12.225Z,89.98
2023-04-11T05:56:18.714Z,90.54
2023-04-11T05:57:52.359Z,90.62
2023-04-11T05:59:08.675Z,90.83
2023-04-11T06:00:40.120Z,91.12
2023-04-11T06:02:13.955Z,90.88
2023-04-11T06:03:48.136Z,90.93
2023-04-11T06:05:13.925Z,91.12
2023-04-11T06:15:54.827Z,89.99
2023-04-11T06:17:27.909Z,90.13
2023-04-11T06:19:01.032Z,90.21
2023-04-11T06:20:33.693Z,90.52
2023-04-11T06:22:06.337Z,90.61
2023-04-11T06:23:18.811Z,90.73
2023-04-11T06:24:51.430Z,90.66
2023-04-11T06:26:24.452Z,90.95
2023-04-11T06:27:57.337Z,90.63
2023-04-11T06:29:29.549Z,90.51
2023-04-11T06:31:03.815Z,90.55
2023-04-11T06:32:32.688Z,90.37
2023-04-11T06:47:08.474Z,90.41
2023-04-11T06:48:41.193Z,90.64
2023-04-11T06:50:06.528Z,90.55
2023-04-11T06:51:28.156Z,90.75
2023-04-11T06:53:00.904Z,90.79
2023-04-11T06:54:26.446Z,90.65
2023-04-11T06:55:59.055Z,90.68
2023-04-11T06:57:21.759Z,90.60
2023-04-11T06:58:54.839Z,90.42
2023-04-11T07:00:29.553Z,90.47
2023-04-11T07:02:02.583Z,90.27
2023-04-11T07:03:29.665Z,90.39
2023-04-11T07:06:57.318Z,90.76
2023-04-11T07:08:29.847Z,90.74
2023-04-11T07:10:02.260Z,90.68
2023-04-11T07:11:34.814Z,90.73
2023-04-11T07:13:07.694Z,90.22
2023-04-11T07:14:19.818Z,90.24
2023-04-11T07:15:52.740Z,90.15
2023-04-11T07:17:05.210Z,90.39
2023-04-11T07:26:37.789Z,90.29
2023-04-11T07:28:10.304Z,90.10
2023-04-11T07:29:24.895Z,90.07
2023-04-11T07:30:50.476Z,89.97
2023-04-11T07:32:23.174Z,90.00
2023-04-11T07:33:55.913Z,89.92
2023-04-11T07:35:17.598Z,89.59
2023-04-11T07:56:07.518Z,88.55
2023-04-11T07:59:04.729Z,88.16
2023-04-11T08:00:26.579Z,88.43
2023-04-11T08:01:38.924Z,88.81
2023-04-11T08:03:12.706Z,88.65
2023-04-11T08:06:16.954Z,88.66
2023-04-11T08:07:50.909Z,88.71
2023-04-11T08:09:12.161Z,88.53
2023-04-11T08:10:45.256Z,88.50
2023-04-11T08:12:19.725Z,88.60
2023-04-11T08:15:23.031Z,89.29
2023-04-11T08:16:46.011Z,89.15
2023-04-11T08:18:14.980Z,88.63
2023-04-11T08:19:47.066Z,88.83
2023-04-11T08:23:52.291Z,88.63
2023-04-11T08:26:37.478Z,88.60
2023-04-11T08:29:41.281Z,88.99
2023-04-11T08:31:15.236Z,89.23
2023-04-11T08:32:48.151Z,89.18
2023-04-11T08:34:21.729Z,89.15
2023-04-11T08:43:09.451Z,89.02
2023-04-11T08:44:43.154Z,89.56
2023-04-11T08:46:15.946Z,89.53
2023-04-11T08:47:48.791Z,89.59
2023-04-11T08:49:01.010Z,89.62
2023-04-11T08:50:02.080Z,89.38
2023-04-11T08:51:19.542Z,89.47
2023-04-11T08:52:52.019Z,89.21
2023-04-11T08:54:25.091Z,89.07
2023-04-11T08:55:50.458Z,89.19
2023-04-11T08:57:22.990Z,88.97
2023-04-11T08:58:54.751Z,89.23
2023-04-11T09:00:12.880Z,88.96
2023-04-11T09:01:53.896Z,89.06
2023-04-11T09:03:38.694Z,89.07
2023-04-11T09:05:11.462Z,88.86
2023-04-11T09:06:44.182Z,89.21
2023-04-11T09:58:37.190Z,86.59
2023-04-11T10:00:10.419Z,86.19
2023-04-11T10:01:43.779Z,85.96
2023-04-11T10:03:16.888Z,85.72
2023-04-11T10:04:49.696Z,85.57
2023-04-11T10:06:28.017Z,85.26
2023-04-11T10:08:03.990Z,85.34
2023-04-11T10:09:36.797Z,85.70
2023-04-11T10:11:11.220Z,85.53
2023-04-11T10:12:28.786Z,85.56
2023-04-11T10:13:59.205Z,85.18
2023-04-11T10:15:38.997Z,84.77
2023-04-11T10:17:11.576Z,85.07
2023-04-11T10:18:50.009Z,85.23
2023-04-11T10:20:23.817Z,85.04
2023-04-11T10:22:12.418Z,85.02
2023-04-11T10:23:52.314Z,84.98
2023-04-11T10:25:20.186Z,84.60
2023-04-11T10:30:10.876Z,84.54
2023-04-11T10:31:44.505Z,84.76
2023-04-11T10:35:01.697Z,84.56
2023-04-11T10:36:47.807Z,84.31
2023-04-11T10:41:29.216Z,83.47
2023-04-11T10:43:07.736Z,83.19
2023-04-11T10:44:48.557Z,83.12
2023-04-11T10:46:15.494Z,83.02
2023-04-11T10:47:58.237Z,82.67
2023-04-11T10:49:37.061Z,82.64
2023-04-11T10:51:29.379Z,82.29
2023-04-11T10:53:10.253Z,82.34
2023-04-11T10:59:21.808Z,82.20
2023-04-11T11:00:58.610Z,82.44
2023-04-11T11:02:35.276Z,81.71
2023-04-11T11:04:09.553Z,81.74
2023-04-11T11:05:44.209Z,81.27
2023-04-11T11:16:45.152Z,80.42
2023-04-11T11:18:17.949Z,80.55
2023-04-11T11:19:53.442Z,80.52
2023-04-11T11:21:28.357Z,80.25
2023-04-11T11:23:01.376Z,80.11
2023-04-11T11:24:24.320Z,80.09
2023-04-11T11:25:57.199Z,80.05
2023-04-11T11:27:18.377Z,79.82
2023-04-11T11:28:51.162Z,79.95
2023-04-11T11:30:36.247Z,79.94
2023-04-11T11:37:11.376Z,78.55
2023-04-11T11:38:44.181Z,78.22
2023-04-11T11:40:16.812Z,78.48
2023-04-11T11:41:49.514Z,78.67
2023-04-11T11:43:22.863Z,78.74
2023-04-11T11:44:35.486Z,78.03
2023-04-11T11:46:20.009Z,78.13
2023-04-11T11:50:04.525Z,77.31
2023-04-11T11:51:37.177Z,77.32
2023-04-11T11:53:15.326Z,77.58
2023-04-11T11:54:49.004Z,77.60
2023-04-11T11:56:21.408Z,77.54
2023-04-11T11:57:52.574Z,77.51
2023-04-11T11:59:26.007Z,77.24
2023-04-11T12:01:05.656Z,76.73
2023-04-11T12:04:10.591Z,76.86
2023-04-11T12:09:50.692Z,76.98
2023-04-11T12:12:55.128Z,76.36
2023-04-11T12:14:29.106Z,76.32
2023-04-11T12:15:51.832Z,76.16
2023-04-11T12:27:24.457Z,75.20
2023-04-11T12:30:29.992Z,74.82
2023-04-11T12:31:56.619Z,74.50
2023-04-11T12:47:34.017Z,72.88
2023-04-11T12:49:06.767Z,72.84
2023-04-11T12:50:39.454Z,72.59
2023-04-11T12:52:12.016Z,72.46
2023-04-11T12:53:25.160Z,72.38
2023-04-11T12:54:58.048Z,72.35
2023-04-11T12:56:10.661Z,72.00
2023-04-11T13:09:26.662Z,70.06
2023-04-11T13:11:00.677Z,70.15
2023-04-11T13:12:34.938Z,70.09
2023-04-11T13:15:48.627Z,69.41
2023-04-11T13:17:22.661Z,69.39
2023-04-11T13:18:50.360Z,69.33
2023-04-11T13:20:24.431Z,68.89
2023-04-11T13:44:15.616Z,66.05
2023-04-11T13:45:48.505Z,65.94
2023-04-11T13:47:00.927Z,65.86
2023-04-11T13:48:33.489Z,65.95
2023-04-11T13:49:58.631Z,65.77
2023-04-11T13:51:31.453Z,65.40
2023-04-11T13:53:04.594Z,65.48
2023-04-11T14:08:30.999Z,64.22
2023-04-11T14:09:36.451Z,64.37
2023-04-11T14:11:09.257Z,64.04
2023-04-11T14:12:34.397Z,64.07
2023-04-11T14:14:06.968Z,64.23
2023-04-11T14:15:28.728Z,64.06
2023-04-11T14:16:46.934Z,63.95
2023-04-11T14:18:20.006Z,63.70
2023-04-11T14:19:32.203Z,63.67
2023-04-11T14:21:04.606Z,63.79
2023-04-11T14:22:37.269Z,63.77
2023-04-11T14:24:10.044Z,63.71
2023-04-11T14:25:42.275Z,63.47
2023-04-11T14:27:16.836Z,63.27
2023-04-11T14:28:49.806Z,63.29
2023-04-11T14:30:02.042Z,63.15
2023-04-11T14:31:27.950Z,63.25
2023-04-11T14:35:02.464Z,62.50
2023-04-11T14:36:35.384Z,62.32
2023-04-11T14:38:08.144Z,62.31
2023-04-11T14:39:40.986Z,62.39
2023-04-11T14:40:45.862Z,62.47
2023-04-11T14:42:18.490Z,62.31
2023-04-11T14:43:51.457Z,62.10
2023-04-11T14:51:38.340Z,61.80
2023-04-11T14:53:11.288Z,61.86
2023-04-11T14:54:34.354Z,61.79
2023-04-11T14:56:09.858Z,61.90
2023-04-11T14:57:44.895Z,61.99
2023-04-11T14:59:19.080Z,62.12
2023-04-11T15:12:54.629Z,61.21
2023-04-11T15:14:15.963Z,61.13
2023-04-11T15:15:48.833Z,61.18
2023-04-11T15:17:01.000Z,61.32
2023-04-11T15:18:33.551Z,61.38
2023-04-11T15:20:06.032Z,61.42
2023-04-11T15:21:39.863Z,61.48
2023-04-11T15:23:13.758Z,61.56
2023-04-11T15:32:02.243Z,61.54
2023-04-11T15:33:36.189Z,61.69
2023-04-11T15:34:55.656Z,61.66
2023-04-11T15:36:12.181Z,61.76
2023-04-11T15:37:39.038Z,61.80
2023-04-11T15:38:48.453Z,61.93
2023-04-11T15:40:22.503Z,61.88
2023-04-11T15:41:49.379Z,61.97
2023-04-11T15:43:16.239Z,62.15
2023-04-11T15:52:29.120Z,62.29
2023-04-11T15:53:43.472Z,62.30
2023-04-11T15:55:08.740Z,62.67
2023-04-11T15:56:46.135Z,62.72
2023-04-11T15:58:01.864Z,62.70
2023-04-11T16:16:29.821Z,64.14
2023-04-11T16:44:47.850Z,65.68
2023-04-11T16:46:12.462Z,65.83
2023-04-11T16:47:47.647Z,65.84
2023-04-11T16:49:25.170Z,66.10
2023-04-11T16:56:16.032Z,66.44
2023-04-11T16:57:38.804Z,66.53
2023-04-11T16:59:02.051Z,66.60
2023-04-11T17:00:35.974Z,66.59
2023-04-11T17:02:11.236Z,66.76
2023-04-11T17:03:45.898Z,66.84
2023-04-11T17:05:20.607Z,66.99
2023-04-11T17:06:43.325Z,67.09
2023-04-11T17:07:56.918Z,67.17
2023-04-11T17:09:32.331Z,67.18
2023-04-11T17:10:59.604Z,67.28
2023-04-11T17:12:33.542Z,67.42
2023-04-11T17:14:01.196Z,67.49
2023-04-11T17:15:21.531Z,67.59
2023-04-11T17:16:56.720Z,67.66
2023-04-11T17:18:12.351Z,67.69
2023-04-11T17:19:26.298Z,67.84
2023-04-11T17:20:53.206Z,67.88
2023-04-11T17:22:28.365Z,68.12
2023-04-11T17:23:55.748Z,68.04
2023-04-11T17:25:18.768Z,68.12
2023-04-11T17:26:45.877Z,68.22
2023-04-11T17:28:12.802Z,68.27
2023-04-11T17:47:19.150Z,69.17
2023-04-11T17:48:53.090Z,69.27
2023-04-11T17:50:19.769Z,69.38
2023-04-11T17:51:58.886Z,69.57
2023-04-11T17:53:34.127Z,69.59
2023-04-11T17:54:51.342Z,69.53
2023-04-11T17:56:28.433Z,69.49
2023-04-11T17:57:51.199Z,69.62
2023-04-11T17:59:25.228Z,69.63
2023-04-11T18:00:59.566Z,69.59
2023-04-11T18:02:23.448Z,69.80
2023-04-11T18:03:41.499Z,69.77
2023-04-11T18:08:07.185Z,69.92
2023-04-11T18:09:22.781Z,70.01
2023-04-11T18:35:27.703Z,71.19
2023-04-11T18:36:56.200Z,71.15
2023-04-11T18:38:13.007Z,71.16
2023-04-11T18:39:48.365Z,71.20
2023-04-11T18:41:12.794Z,71.44
2023-04-11T18:42:48.258Z,71.34
2023-04-11T18:44:21.766Z,71.43
2023-04-11T18:45:56.471Z,71.37
2023-04-11T18:47:31.626Z,71.37
2023-04-11T18:49:07.937Z,71.40
2023-04-11T18:50:42.413Z,71.35
2023-04-11T18:52:16.702Z,71.50
2023-04-11T18:53:33.200Z,71.43
2023-04-11T18:55:07.992Z,71.53
2023-04-11T18:56:45.112Z,71.62
2023-04-11T18:58:25.510Z,71.45
2023-04-11T18:59:36.774Z,71.63
2023-04-11T19:01:14.165Z,71.56
2023-04-11T19:02:50.373Z,71.87
2023-04-11T19:04:19.323Z,71.98
2023-04-11T19:05:47.005Z,71.91
2023-04-11T19:07:07.486Z,71.89
2023-04-11T19:08:44.974Z,72.12
2023-04-11T19:10:20.022Z,72.10
2023-04-11T19:11:54.272Z,72.25
2023-04-11T19:13:28.780Z,72.28
2023-04-11T19:15:03.092Z,72.35
2023-04-11T19:16:28.437Z,72.28
2023-04-11T19:21:49.298Z,72.32
2023-04-11T20:06:21.387Z,73.71
2023-04-11T20:07:55.360Z,73.86
2023-04-11T20:09:22.176Z,73.95
2023-04-11T20:10:45.186Z,74.02
2023-04-11T20:12:19.876Z,74.05
2023-04-11T20:13:48.621Z,74.11
2023-04-11T20:40:40.574Z,74.78
2023-04-11T20:42:14.777Z,74.77
2023-04-11T20:43:49.868Z,74.70
2023-04-11T20:45:24.086Z,74.93
2023-04-11T20:54:56.318Z,75.18
2023-04-11T20:56:29.224Z,75.11
2023-04-11T20:57:41.553Z,75.07
2023-04-11T20:59:14.157Z,75.20
2023-04-11T21:00:46.914Z,75.34
2023-04-11T21:02:19.761Z,75.25
2023-04-11T21:03:50.354Z,75.21
2023-04-11T21:11:49.635Z,75.61
2023-04-11T21:13:22.351Z,75.65
2023-04-11T21:14:55.053Z,75.64
2023-04-11T21:16:27.742Z,75.67
2023-04-11T21:18:01.438Z,75.58
2023-04-11T21:19:28.813Z,75.68
2023-04-11T21:21:01.421Z,75.69
2023-04-11T21:22:34.164Z,75.65
2023-04-11T21:23:59.285Z,75.58
2023-04-11T21:25:26.907Z,75.45
2023-04-11T21:27:01.205Z,75.80
2023-04-11T21:28:34.411Z,75.93
2023-04-11T21:29:47.193Z,75.65
2023-04-11T21:33:04.453Z,75.96
2023-04-11T21:34:37.184Z,75.81
2023-04-11T21:36:09.888Z,75.83
2023-04-11T21:37:43.635Z,75.82
2023-04-11T21:38:55.924Z,75.98
2023-04-11T21:40:28.610Z,75.72
2023-04-11T21:42:02.285Z,76.01
2023-04-11T21:43:36.827Z,76.02
2023-04-11T21:45:11.120Z,76.17
2023-04-11T21:46:38.106Z,76.41
2023-04-11T21:54:24.505Z,76.40
2023-04-11T21:55:58.052Z,76.40
2023-04-11T21:57:24.615Z,76.40
2023-04-11T21:58:57.275Z,76.50
2023-04-11T22:00:17.964Z,76.41
2023-04-11T22:01:50.626Z,76.31
2023-04-11T22:03:16.515Z,76.53
2023-04-11T22:04:29.306Z,76.38
2023-04-11T22:05:59.407Z,76.48
2023-04-11T22:07:24.828Z,76.27
2023-04-11T22:08:49.268Z,76.23
2023-04-11T22:10:11.265Z,76.59
2023-04-11T22:11:37.722Z,76.62
2023-04-11T22:13:00.226Z,76.57
2023-04-11T22:14:12.361Z,76.62
2023-04-11T22:15:43.826Z,76.46
2023-04-11T22:17:17.753Z,76.50
2023-04-11T22:18:30.011Z,76.69
2023-04-11T22:19:22.716Z,76.66
2023-04-11T22:20:45.737Z,76.68
2023-04-11T22:22:18.339Z,76.57
2023-04-11T22:23:40.886Z,76.64
2023-04-11T22:24:53.107Z,76.82
2023-04-11T22:26:25.767Z,76.88
2023-04-11T22:27:58.253Z,76.83
2023-04-11T22:29:10.553Z,76.84
2023-04-11T22:30:43.123Z,76.81
2023-04-11T22:32:15.874Z,76.92
2023-04-11T22:33:48.496Z,76.82
2023-04-11T22:35:11.575Z,77.11
2023-04-11T22:37:59.691Z,76.91
2023-04-11T22:39:12.478Z,77.02
2023-04-11T22:40:45.397Z,76.91
2023-04-11T22:42:01.082Z,76.85
2023-04-11T22:43:26.291Z,76.93
2023-04-11T22:44:58.884Z,76.83
2023-04-11T22:46:31.419Z,76.91
2023-04-11T22:48:06.553Z,76.81
2023-04-11T22:49:37.717Z,76.81
2023-04-11T22:51:02.254Z,76.92
2023-04-11T22:52:34.924Z,77.07
2023-04-11T22:53:58.840Z,77.21
2023-04-11T22:55:31.757Z,77.21
2023-04-11T22:56:54.271Z,77.47
2023-04-11T22:58:06.457Z,77.55
2023-04-11T22:59:38.954Z,77.51
2023-04-11T23:00:54.607Z,77.56
2023-04-11T23:02:12.369Z,77.58
2023-04-11T23:03:44.965Z,77.61
2023-04-11T23:05:06.616Z,77.48
2023-04-11T23:06:39.141Z,77.60
2023-04-11T23:08:03.555Z,77.96
2023-04-11T23:09:37.459Z,77.94
2023-04-11T23:28:16.712Z,78.26
2023-04-11T23:29:30.861Z,78.28
2023-04-11T23:31:04.968Z,78.38
2023-04-11T23:32:38.921Z,78.34
2023-04-11T23:34:14.313Z,78.45
2023-04-11T23:35:48.643Z,78.48
2023-04-11T23:37:15.216Z,78.61
2023-04-11T23:38:08.684Z,78.37
2023-04-11T23:39:42.665Z,78.41
2023-04-11T23:41:16.590Z,78.51
2023-04-11T23:42:51.909Z,78.55
2023-04-11T23:44:25.859Z,78.67
2023-04-11T23:59:23.257Z,79.20
